Tropical Cyclones
[Index]
Main Index Home Page Stock Weather Photos Extreme Storms Discussion Storm News and Storm Chasing Reports Tropical Cyclones / Hurricanes / Typhoons Weather Data and Links Wild Fires / Bushfires Weather Observation Techniques Weather Picture Catalogue Tornado Pictures and Reports Stock Video Footage and DVDs for sale
Season 2002-2003 Tropical Cyclone CILLA Track Map
Season 2002-2003 Summaries (Operational Data): [AU] [SIO] [SPAC] [SH]
<<- Previous TC | 2002-2003 Season | Next TC ->>

click for intensity scale information  Lat/long Grid: Show Hide

 Date Labels: Show Hide

Operational Tropical Cyclone Data : JTWC Advisories

Name: CILLA
Number: 0313

25 Jan 2003 21:00 UTC to 30 Jan 2003 11:00 UTC

    date/time    lat    long     hPa   cat  kts
2003-01-25 21   15.0   176.2    1000         30          
2003-01-26 03   15.5   176.4     998         30          
2003-01-26 06   15.5   177.9     997         30          
2003-01-26 12   15.8   177.1     997         30          
2003-01-26 18   17.4   179.7W    997         30          
2003-01-27 00   18.5   177.1W    995    1    35          
2003-01-27 06   19.2   176.6W    995    1    35          
2003-01-27 12   19.6   175.1W    995    1    35          
2003-01-27 18   20.0   174.0W    995    1    35          
2003-01-28 00   20.4   171.7W    995    1    35          
2003-01-28 06   20.8   170.0W    995    1    40          
2003-01-28 12   21.2   169.5W    995    1    40          
2003-01-28 18   21.6   168.1W    995    1    40          
2003-01-29 00   22.3   167.5W    990    1    40          
2003-01-29 06   22.4   167.0W    995    1    35          
2003-01-29 12   22.5   166.0W    997         30          
2003-01-29 18   22.9   165.5W    998         30          
2003-01-30 00   23.9   165.3W    998         30          
2003-01-30 11   25.0   165.0W   1002    1    35          
Winds are 10-min average.

Tropical cyclone tracks developed by Michael Bath using operational warnings and advisories and Google Maps.


[Australian Severe Weather index] [Copyright Notice] [Email Contacts] [Search This Site] [Privacy Policy]
Document: tropical_cyclone_cilla.htm Updated: 2 May 2017